Time;durP1;ratioP1;P1;durP2;ratioP2;P2;SDS_P1;SDS_P2;PMS_P1;PMS_P2;Temp;Humidity;BMP_temperature;BMP_pressure;BME280_temperature;BME280_humidity;BME280_pressure;Samples;Min_cycle;Max_cycle;Signal;HPM_P1;HPM_P2
2022/06/09 00:02:23;;;;;;;18.23;9.32;;;14.70;99.90;;;;;;5092911;28;20040;-78
2022/06/09 00:04:49;;;;;;;16.60;9.00;;;14.70;99.90;;;;;;5075178;28;20121;-78
2022/06/09 00:07:21;;;;;;;17.38;9.85;;;14.70;99.90;;;;;;5081886;28;20116;-78
2022/06/09 00:09:55;;;;;;;17.67;8.57;;;14.70;99.90;;;;;;5059176;28;20048;-79
2022/06/09 00:12:23;;;;;;;20.13;7.97;;;14.70;99.90;;;;;;5084183;28;20079;-79
2022/06/09 00:14:49;;;;;;;18.80;9.82;;;14.70;99.90;;;;;;5092377;28;20105;-78
2022/06/09 00:17:15;;;;;;;16.33;8.90;;;14.70;99.90;;;;;;5081930;28;20051;-79
2022/06/09 00:19:41;;;;;;;18.67;9.02;;;14.60;99.90;;;;;;5070772;28;20462;-78
2022/06/09 00:22:07;;;;;;;16.95;8.88;;;14.70;99.90;;;;;;5081262;28;20056;-78
2022/06/09 00:24:33;;;;;;;17.65;8.50;;;14.60;99.90;;;;;;5092255;28;20048;-78
2022/06/09 00:26:59;;;;;;;17.77;8.35;;;14.70;99.90;;;;;;5092463;28;20036;-77
2022/06/09 00:29:24;;;;;;;15.82;8.30;;;14.60;99.90;;;;;;5079696;28;20040;-78
2022/06/09 00:31:50;;;;;;;17.23;7.63;;;14.60;99.90;;;;;;5079582;28;20528;-78
2022/06/09 00:34:16;;;;;;;20.33;9.05;;;14.60;99.90;;;;;;5092769;28;20423;-80
2022/06/09 00:36:42;;;;;;;18.05;9.15;;;14.60;99.90;;;;;;5092316;28;20048;-78
2022/06/09 00:39:07;;;;;;;19.55;8.20;;;14.50;99.90;;;;;;5079154;28;20055;-79
2022/06/09 00:41:38;;;;;;;18.35;8.35;;;14.50;99.90;;;;;;5092236;28;20040;-77
2022/06/09 00:44:25;;;;;;;15.88;7.97;;;14.50;99.90;;;;;;5091553;28;20055;-78
2022/06/09 00:47:07;;;;;;;18.25;8.18;;;14.50;99.90;;;;;;5082882;28;20089;-78
2022/06/09 00:49:48;;;;;;;15.88;8.20;;;14.40;99.90;;;;;;5063889;28;20116;-78
2022/06/09 00:52:21;;;;;;;21.45;8.00;;;14.40;99.90;;;;;;5079903;28;20105;-79
2022/06/09 00:54:52;;;;;;;14.27;7.50;;;14.40;99.90;;;;;;5092054;28;20365;-78
2022/06/09 00:57:27;;;;;;;14.85;8.00;;;14.40;99.90;;;;;;5092066;28;20052;-79
2022/06/09 00:59:58;;;;;;;16.52;7.95;;;14.30;99.90;;;;;;5061431;28;20065;-79
2022/06/09 01:02:25;;;;;;;18.80;7.80;;;14.30;99.90;;;;;;5091837;28;20052;-79
2022/06/09 01:04:53;;;;;;;18.40;7.97;;;14.30;99.90;;;;;;5085506;28;20040;-79
2022/06/09 01:07:24;;;;;;;15.70;7.85;;;14.20;99.90;;;;;;5082191;28;20048;-79
2022/06/09 01:09:50;;;;;;;13.70;7.88;;;14.20;99.90;;;;;;5063935;28;20496;-80
2022/06/09 01:12:21;;;;;;;12.48;7.25;;;14.20;99.90;;;;;;5074099;28;20044;-79
2022/06/09 01:14:47;;;;;;;15.95;7.80;;;14.10;99.90;;;;;;5090188;28;20052;-80
2022/06/09 01:17:25;;;;;;;16.80;7.43;;;14.00;99.90;;;;;;5080890;28;20044;-80
2022/06/09 01:20:41;;;;;;;14.85;7.25;;;14.00;99.90;;;;;;5082034;28;20554;-80
2022/06/09 01:23:07;;;;;;;13.70;7.15;;;14.00;99.90;;;;;;4994078;28;20045;-80
2022/06/09 01:25:41;;;;;;;14.15;7.15;;;13.90;99.90;;;;;;4997189;28;20053;-78
2022/06/09 01:28:46;;;;;;;14.48;7.50;;;13.90;99.90;;;;;;5058184;28;20056;-80
2022/06/09 01:31:35;;;;;;;16.27;7.45;;;13.80;99.90;;;;;;5081656;28;20055;-79
2022/06/09 01:34:16;;;;;;;13.55;6.53;;;13.70;99.90;;;;;;5067115;28;20048;-81
2022/06/09 01:37:03;;;;;;;14.32;6.80;;;13.70;99.90;;;;;;5091486;28;20090;-79
2022/06/09 01:39:48;;;;;;;12.95;7.18;;;13.70;99.90;;;;;;5076866;28;20480;-81
2022/06/09 01:42:23;;;;;;;17.25;7.28;;;13.70;99.90;;;;;;5091116;28;20581;-80
2022/06/09 01:44:50;;;;;;;11.82;7.03;;;13.70;99.90;;;;;;5087373;28;20076;-78
2022/06/09 01:47:20;;;;;;;15.65;7.70;;;13.80;99.90;;;;;;5077797;28;20056;-80
2022/06/09 01:49:48;;;;;;;15.07;7.30;;;13.70;99.90;;;;;;5093713;28;20048;-80
2022/06/09 01:52:14;;;;;;;16.20;6.78;;;13.70;99.90;;;;;;5084070;28;20434;-79
2022/06/09 01:54:42;;;;;;;14.65;6.35;;;13.70;99.90;;;;;;5079735;28;20112;-80
2022/06/09 01:57:18;;;;;;;14.07;6.90;;;13.70;99.90;;;;;;5087307;28;20048;-80
2022/06/09 01:59:54;;;;;;;15.90;6.38;;;13.70;99.90;;;;;;5091347;28;20052;-82
2022/06/09 02:02:26;;;;;;;17.88;7.00;;;13.70;99.90;;;;;;5087800;28;20090;-80
2022/06/09 02:05:05;;;;;;;17.80;6.43;;;13.70;99.90;;;;;;5091236;28;20496;-80
2022/06/09 02:07:33;;;;;;;16.25;6.30;;;13.70;99.90;;;;;;5090810;28;20568;-80
2022/06/09 02:10:14;;;;;;;15.35;6.10;;;13.60;99.90;;;;;;5091069;28;20090;-79
2022/06/09 02:12:40;;;;;;;13.43;5.97;;;13.60;99.90;;;;;;5091160;28;20056;-80
2022/06/09 02:15:10;;;;;;;12.85;6.05;;;13.60;99.90;;;;;;5083138;28;20116;-79
2022/06/09 02:17:47;;;;;;;12.82;7.03;;;13.50;99.90;;;;;;5085202;28;20240;-80
2022/06/09 02:20:14;;;;;;;13.73;7.05;;;13.50;99.90;;;;;;5076078;28;20044;-81
2022/06/09 02:22:40;;;;;;;13.57;6.72;;;13.50;99.90;;;;;;5065591;28;20048;-80
2022/06/09 02:25:06;;;;;;;13.57;6.90;;;13.50;99.90;;;;;;5090689;28;20456;-80
2022/06/09 02:27:31;;;;;;;17.63;7.05;;;13.50;99.90;;;;;;5091328;28;20055;-79
2022/06/09 02:29:57;;;;;;;16.02;6.35;;;13.50;99.90;;;;;;5090932;28;20052;-79
2022/06/09 02:32:23;;;;;;;14.10;6.95;;;13.40;99.90;;;;;;5085315;28;20040;-80
2022/06/09 02:34:48;;;;;;;12.63;6.70;;;13.50;99.90;;;;;;5081755;28;20058;-79
2022/06/09 02:37:14;;;;;;;12.25;7.13;;;13.40;99.90;;;;;;5090757;28;20040;-80
2022/06/09 02:39:40;;;;;;;14.82;6.80;;;13.40;99.90;;;;;;5089759;28;20044;-81
2022/06/09 02:42:07;;;;;;;17.13;7.30;;;13.40;99.90;;;;;;5074642;28;20051;-79
2022/06/09 02:44:33;;;;;;;15.15;7.13;;;13.30;99.90;;;;;;5054094;28;20044;-78
2022/06/09 02:46:59;;;;;;;13.93;6.88;;;13.30;99.90;;;;;;5091852;28;20097;-77
2022/06/09 02:49:26;;;;;;;13.68;8.40;;;13.30;99.90;;;;;;5083843;28;20442;-79
2022/06/09 02:51:54;;;;;;;16.60;8.88;;;13.30;99.90;;;;;;5084914;28;20056;-81
2022/06/09 02:54:20;;;;;;;17.55;8.65;;;13.30;99.90;;;;;;5091376;28;20091;-81
2022/06/09 02:56:47;;;;;;;17.10;8.50;;;13.30;99.90;;;;;;5088539;28;20052;-81
2022/06/09 02:59:13;;;;;;;19.33;8.77;;;13.30;99.90;;;;;;5076422;28;20055;-80
2022/06/09 03:01:39;;;;;;;15.68;9.10;;;13.30;99.90;;;;;;5086723;28;20443;-81
2022/06/09 03:04:06;;;;;;;17.10;9.23;;;13.20;99.90;;;;;;5092581;28;20109;-80
2022/06/09 03:06:32;;;;;;;16.98;9.00;;;13.20;99.90;;;;;;5094064;28;20048;-79
2022/06/09 03:08:58;;;;;;;21.70;9.65;;;13.30;99.90;;;;;;5093964;28;20579;-80
2022/06/09 03:11:24;;;;;;;19.05;9.50;;;13.20;99.90;;;;;;5093234;28;20044;-80
2022/06/09 03:13:50;;;;;;;18.48;10.05;;;13.20;99.90;;;;;;5076307;28;20043;-82
2022/06/09 03:16:16;;;;;;;20.77;9.82;;;13.20;99.90;;;;;;5094209;28;20044;-79
2022/06/09 03:18:44;;;;;;;19.38;9.98;;;13.20;99.90;;;;;;5086581;28;20048;-80
2022/06/09 03:21:10;;;;;;;18.73;8.93;;;13.10;99.90;;;;;;5071092;28;20122;-80
2022/06/09 03:23:36;;;;;;;22.40;9.52;;;13.10;99.90;;;;;;5077881;28;20108;-81
2022/06/09 03:26:02;;;;;;;17.48;8.95;;;13.10;99.90;;;;;;5078426;28;20131;-81
2022/06/09 03:28:28;;;;;;;19.50;10.20;;;13.10;99.90;;;;;;5090864;28;20391;-80
2022/06/09 03:30:55;;;;;;;18.63;10.68;;;13.00;99.90;;;;;;5077328;28;20503;-80
2022/06/09 03:33:21;;;;;;;18.98;9.20;;;12.90;99.90;;;;;;5092284;28;20081;-81
2022/06/09 03:35:46;;;;;;;14.93;9.25;;;13.00;99.90;;;;;;5092147;28;20132;-80
2022/06/09 03:38:12;;;;;;;19.63;10.00;;;13.00;99.90;;;;;;5092131;28;20043;-80
2022/06/09 03:40:38;;;;;;;21.42;9.63;;;13.00;99.90;;;;;;5092244;28;20048;-81
2022/06/09 03:43:03;;;;;;;16.13;9.43;;;12.90;99.90;;;;;;5093308;28;20050;-79
2022/06/09 03:45:34;;;;;;;18.48;9.63;;;12.90;99.90;;;;;;5090331;28;20076;-81
2022/06/09 03:47:59;;;;;;;17.08;9.90;;;12.90;99.90;;;;;;5085573;28;20040;-79
2022/06/09 03:50:27;;;;;;;18.65;9.73;;;12.90;99.90;;;;;;5093446;28;20047;-80
2022/06/09 03:52:54;;;;;;;23.50;10.50;;;12.90;99.90;;;;;;5061828;28;20077;-80
2022/06/09 03:55:20;;;;;;;24.70;10.40;;;12.90;99.90;;;;;;5085526;28;20052;-79
2022/06/09 03:57:46;;;;;;;22.20;10.10;;;12.90;99.90;;;;;;5075468;28;20048;-79
2022/06/09 04:00:18;;;;;;;19.83;9.77;;;12.90;99.90;;;;;;5087075;28;20044;-79
2022/06/09 04:02:44;;;;;;;19.30;9.82;;;12.90;99.90;;;;;;5085169;28;20192;-80
2022/06/09 04:05:10;;;;;;;17.63;10.15;;;12.90;99.90;;;;;;5075177;28;20154;-80
2022/06/09 04:07:36;;;;;;;24.08;9.05;;;12.90;99.90;;;;;;5081914;28;20051;-80
2022/06/09 04:10:02;;;;;;;19.63;9.10;;;12.90;99.90;;;;;;5088487;28;20048;-79
2022/06/09 04:12:28;;;;;;;16.92;8.63;;;12.90;99.90;;;;;;5079991;28;20047;-79
2022/06/09 04:14:54;;;;;;;16.25;8.93;;;12.90;99.90;;;;;;5074531;28;20048;-80
2022/06/09 04:17:20;;;;;;;17.08;8.38;;;12.90;99.90;;;;;;5074871;28;20040;-79
2022/06/09 04:19:45;;;;;;;16.83;8.60;;;12.90;99.90;;;;;;5087430;28;20286;-80
2022/06/09 04:22:12;;;;;;;17.42;8.80;;;13.00;99.90;;;;;;5092588;28;20426;-80
2022/06/09 04:24:38;;;;;;;15.00;8.38;;;13.00;99.90;;;;;;5081764;28;20492;-80
2022/06/09 04:27:04;;;;;;;17.02;8.07;;;13.10;99.90;;;;;;5091399;28;20058;-80
2022/06/09 04:29:30;;;;;;;17.13;8.80;;;13.10;99.90;;;;;;5083163;28;20055;-81
2022/06/09 04:31:56;;;;;;;18.60;8.27;;;13.10;99.90;;;;;;5076339;28;20048;-81
2022/06/09 04:34:22;;;;;;;17.00;7.32;;;13.10;99.90;;;;;;5091563;28;20052;-81
2022/06/09 04:36:47;;;;;;;15.32;7.53;;;13.20;99.90;;;;;;5092367;28;20138;-81
2022/06/09 04:39:13;;;;;;;15.95;8.57;;;13.20;99.90;;;;;;5085744;28;20112;-80
2022/06/09 04:41:39;;;;;;;16.27;8.68;;;13.20;99.90;;;;;;5092315;28;20044;-81
2022/06/09 04:44:06;;;;;;;17.38;8.13;;;13.30;99.90;;;;;;5091767;28;20047;-81
2022/06/09 04:46:32;;;;;;;18.10;8.27;;;13.30;99.90;;;;;;5080025;28;20067;-79
2022/06/09 04:48:57;;;;;;;14.85;7.57;;;13.30;99.90;;;;;;5083631;28;20059;-81
2022/06/09 04:51:26;;;;;;;17.73;7.40;;;13.40;99.90;;;;;;5092214;28;20439;-81
2022/06/09 04:53:52;;;;;;;14.43;7.07;;;13.40;99.90;;;;;;5079557;28;20055;-80
2022/06/09 04:56:20;;;;;;;13.43;7.57;;;13.40;99.90;;;;;;5091889;28;20036;-80
2022/06/09 04:58:47;;;;;;;13.63;7.72;;;13.40;99.90;;;;;;5092172;28;20472;-81
2022/06/09 05:01:25;;;;;;;17.67;7.93;;;13.40;99.90;;;;;;5091528;28;20407;-80
2022/06/09 05:03:52;;;;;;;14.30;7.40;;;13.50;99.90;;;;;;5092081;28;20044;-80
2022/06/09 05:06:19;;;;;;;16.88;7.50;;;13.50;99.90;;;;;;5086780;28;20048;-80
2022/06/09 05:08:45;;;;;;;16.50;7.32;;;13.50;99.90;;;;;;5083398;28;20392;-81
2022/06/09 05:11:11;;;;;;;14.02;7.53;;;13.50;99.90;;;;;;5084731;28;20036;-81
2022/06/09 05:13:37;;;;;;;13.05;7.35;;;13.50;99.90;;;;;;5078822;28;20067;-82
2022/06/09 05:16:03;;;;;;;16.17;7.40;;;13.60;99.90;;;;;;5085882;28;20051;-81
2022/06/09 05:18:31;;;;;;;16.10;7.80;;;13.60;99.90;;;;;;5091797;28;20036;-81
2022/06/09 05:20:58;;;;;;;16.10;7.03;;;13.60;99.90;;;;;;5029389;28;20083;-79
2022/06/09 05:23:25;;;;;;;14.98;7.63;;;13.60;99.90;;;;;;5090779;28;20443;-79
2022/06/09 05:25:53;;;;;;;15.80;6.15;;;13.70;99.90;;;;;;5091444;28;20404;-81
2022/06/09 05:28:20;;;;;;;14.77;7.63;;;13.70;99.90;;;;;;5091468;28;20044;-79
2022/06/09 05:30:46;;;;;;;17.92;7.10;;;13.70;99.90;;;;;;5091858;28;20063;-79
2022/06/09 05:33:13;;;;;;;13.40;8.07;;;13.80;99.90;;;;;;5091553;28;20052;-80
2022/06/09 05:35:39;;;;;;;15.77;7.38;;;13.80;99.90;;;;;;5075165;28;20044;-80
2022/06/09 05:46:19;;;;;;;13.48;7.45;;;13.90;99.90;;;;;;5091429;28;20119;-78
2022/06/09 05:48:46;;;;;;;14.05;7.45;;;14.00;99.90;;;;;;5083362;28;20456;-79
2022/06/09 05:51:14;;;;;;;13.93;8.50;;;14.00;99.90;;;;;;5091170;28;20431;-81
2022/06/09 05:53:41;;;;;;;13.68;8.20;;;14.00;99.90;;;;;;5072879;28;20068;-78
2022/06/09 05:56:07;;;;;;;15.00;8.50;;;14.00;99.90;;;;;;5072061;28;20036;-78
2022/06/09 05:58:35;;;;;;;13.65;8.07;;;14.00;99.90;;;;;;5071818;28;20109;-81
2022/06/09 06:01:02;;;;;;;16.75;8.13;;;14.10;99.90;;;;;;5070181;28;20369;-82
2022/06/09 06:03:28;;;;;;;13.68;7.95;;;14.10;99.90;;;;;;5070849;28;20083;-80
2022/06/09 06:08:39;;;;;;;18.73;9.15;;;14.10;99.90;;;;;;5070903;28;20060;-76
2022/06/09 06:11:06;;;;;;;11.60;7.32;;;14.10;99.90;;;;;;5070613;28;20048;-77
2022/06/09 06:13:35;;;;;;;11.18;7.50;;;14.10;99.90;;;;;;5069743;28;20052;-76
2022/06/09 06:16:00;;;;;;;13.38;8.25;;;14.20;99.90;;;;;;5052780;28;20068;-76
2022/06/09 06:18:27;;;;;;;11.90;7.22;;;14.20;99.90;;;;;;5071824;28;20488;-77
2022/06/09 06:20:55;;;;;;;11.13;7.97;;;14.20;99.90;;;;;;5074684;28;20088;-76
2022/06/09 06:23:22;;;;;;;11.38;8.15;;;14.20;99.90;;;;;;5074845;28;20106;-76
2022/06/09 06:25:48;;;;;;;13.65;7.78;;;14.20;99.90;;;;;;5074786;28;20080;-76
2022/06/09 06:28:14;;;;;;;12.88;7.68;;;14.30;99.90;;;;;;5074773;28;20087;-75
2022/06/09 06:30:39;;;;;;;12.13;7.72;;;14.30;99.90;;;;;;5074584;28;20048;-75
2022/06/09 06:33:05;;;;;;;11.07;7.63;;;14.40;99.90;;;;;;5074506;28;20597;-76
2022/06/09 06:35:31;;;;;;;11.15;8.13;;;14.40;99.90;;;;;;5074068;28;20052;-76
2022/06/09 06:37:57;;;;;;;11.50;7.65;;;14.40;99.90;;;;;;5073387;28;20055;-76
2022/06/09 06:40:22;;;;;;;12.27;7.65;;;14.50;99.90;;;;;;5074045;28;20160;-77
2022/06/09 06:42:48;;;;;;;11.55;6.63;;;14.50;99.90;;;;;;5072914;28;20123;-77
2022/06/09 06:45:15;;;;;;;11.73;8.00;;;14.50;99.90;;;;;;5074111;28;20828;-75
2022/06/09 06:47:41;;;;;;;11.32;7.43;;;14.60;99.90;;;;;;5072957;28;20795;-75
2022/06/09 06:50:10;;;;;;;11.07;7.65;;;14.60;99.90;;;;;;5074113;28;20047;-77
2022/06/09 06:52:36;;;;;;;16.02;8.38;;;14.70;99.90;;;;;;5074029;28;20492;-76
2022/06/09 06:55:04;;;;;;;12.13;8.05;;;14.70;99.90;;;;;;5089105;28;20048;-76
2022/06/09 06:57:30;;;;;;;13.15;8.25;;;14.70;99.90;;;;;;5093256;28;20083;-75
2022/06/09 06:59:55;;;;;;;13.95;8.63;;;14.80;99.90;;;;;;5093834;28;20093;-76
2022/06/09 07:02:21;;;;;;;13.52;8.32;;;14.90;99.90;;;;;;5084587;28;20439;-77
2022/06/09 07:04:47;;;;;;;12.65;8.32;;;14.90;99.90;;;;;;5093988;28;20052;-76
2022/06/09 07:07:12;;;;;;;12.68;7.82;;;14.90;99.90;;;;;;5093844;28;20113;-76
2022/06/09 07:09:38;;;;;;;12.80;8.00;;;15.00;99.90;;;;;;5077366;28;20100;-77
2022/06/09 07:12:05;;;;;;;12.05;8.68;;;15.10;99.90;;;;;;5084707;28;20055;-78
2022/06/09 07:14:33;;;;;;;12.85;9.02;;;15.10;99.90;;;;;;5085506;28;20048;-77
2022/06/09 07:17:00;;;;;;;14.55;9.05;;;15.20;99.90;;;;;;5067081;28;20381;-76
2022/06/09 07:19:26;;;;;;;14.02;8.93;;;15.20;99.90;;;;;;5093254;28;20062;-76
2022/06/09 07:21:52;;;;;;;14.10;8.75;;;15.20;99.90;;;;;;5093827;28;20377;-76
2022/06/09 07:24:19;;;;;;;15.00;9.07;;;15.30;99.90;;;;;;5091006;28;20047;-76
2022/06/09 07:26:44;;;;;;;13.85;8.52;;;15.30;99.90;;;;;;5084500;28;20079;-75
2022/06/09 07:29:11;;;;;;;12.52;7.55;;;15.40;99.90;;;;;;5090346;28;20121;-75
2022/06/09 07:31:37;;;;;;;12.98;8.13;;;15.50;99.90;;;;;;5087612;28;20048;-76
2022/06/09 07:34:03;;;;;;;13.18;7.75;;;15.50;99.90;;;;;;5093048;28;20051;-74
2022/06/09 07:36:28;;;;;;;12.10;7.68;;;15.70;99.90;;;;;;5075129;28;20044;-74
2022/06/09 07:38:54;;;;;;;13.35;8.45;;;15.80;99.90;;;;;;5093242;28;20487;-75
2022/06/09 07:41:20;;;;;;;11.85;7.65;;;15.80;99.90;;;;;;5082469;28;20052;-74
2022/06/09 07:43:47;;;;;;;11.15;7.15;;;15.90;99.90;;;;;;5089316;28;20057;-74
2022/06/09 07:46:14;;;;;;;8.77;6.53;;;16.00;99.90;;;;;;5089627;28;20181;-73
2022/06/09 07:48:39;;;;;;;11.52;7.68;;;16.00;99.90;;;;;;5085574;28;20831;-74
2022/06/09 07:51:06;;;;;;;11.95;7.40;;;16.10;99.90;;;;;;5073051;28;20195;-76
2022/06/09 07:53:32;;;;;;;12.07;6.90;;;16.30;99.90;;;;;;5072664;28;20118;-77
2022/06/09 07:55:58;;;;;;;9.32;7.03;;;16.40;99.90;;;;;;5072450;28;20053;-76
2022/06/09 07:58:24;;;;;;;10.50;7.35;;;16.50;99.90;;;;;;5080377;28;20049;-74
2022/06/09 08:00:50;;;;;;;9.50;6.80;;;16.50;99.90;;;;;;5090541;28;20048;-74
2022/06/09 08:03:20;;;;;;;10.77;7.25;;;16.60;99.90;;;;;;5074368;28;20044;-74
2022/06/09 08:05:46;;;;;;;8.50;5.95;;;16.60;99.90;;;;;;5092275;28;20455;-74
2022/06/09 08:08:11;;;;;;;7.60;5.55;;;16.60;99.90;;;;;;5092649;28;20044;-74
2022/06/09 08:10:38;;;;;;;8.75;6.28;;;16.60;99.90;;;;;;5092428;28;20044;-74
2022/06/09 08:13:04;;;;;;;10.18;6.50;;;16.70;99.90;;;;;;5092308;28;20044;-74
2022/06/09 08:15:31;;;;;;;9.98;5.78;;;16.70;99.90;;;;;;5091858;28;20051;-74
2022/06/09 08:17:58;;;;;;;8.98;5.60;;;16.60;99.90;;;;;;5064319;28;20110;-75
2022/06/09 08:20:26;;;;;;;7.05;5.38;;;16.70;99.90;;;;;;5092450;28;20408;-77
2022/06/09 08:22:52;;;;;;;6.45;3.90;;;16.80;99.90;;;;;;5092144;28;20050;-75
2022/06/09 08:25:21;;;;;;;8.85;4.78;;;17.00;99.90;;;;;;5082285;28;20048;-74
2022/06/09 08:27:47;;;;;;;6.03;4.65;;;17.20;99.90;;;;;;5076873;28;20116;-74
2022/06/09 08:30:14;;;;;;;6.32;4.53;;;17.30;99.90;;;;;;5091812;28;20047;-74
2022/06/09 08:32:40;;;;;;;5.57;4.35;;;17.30;99.90;;;;;;5091411;28;20518;-74
2022/06/09 08:35:09;;;;;;;6.85;3.50;;;17.10;99.90;;;;;;5072834;28;20191;-74
2022/06/09 08:37:34;;;;;;;4.88;3.45;;;17.10;99.90;;;;;;5069481;28;20052;-74
2022/06/09 08:40:01;;;;;;;5.40;3.53;;;17.30;99.90;;;;;;5083265;28;20048;-73
2022/06/09 08:42:32;;;;;;;3.78;3.38;;;17.50;99.90;;;;;;5078566;28;20052;-75
2022/06/09 08:45:05;;;;;;;8.02;3.38;;;17.50;99.90;;;;;;5074906;28;20048;-73
2022/06/09 08:47:46;;;;;;;4.93;2.95;;;17.40;99.90;;;;;;5088981;28;20103;-73
2022/06/09 08:50:46;;;;;;;4.25;2.38;;;17.30;99.90;;;;;;5087063;28;20074;-74
2022/06/09 08:53:11;;;;;;;6.35;2.42;;;17.50;99.90;;;;;;5057337;28;20052;-74
2022/06/09 08:55:48;;;;;;;3.60;2.70;;;17.70;99.90;;;;;;5078047;28;20056;-73
2022/06/09 08:58:19;;;;;;;;;;;17.90;99.90;;;;;;5072192;28;20049;-73
2022/06/09 09:01:17;;;;;;;2.95;1.98;;;17.70;99.90;;;;;;5077395;28;19971;-74
2022/06/09 09:03:56;;;;;;;2.05;1.50;;;17.80;99.90;;;;;;5075612;28;20056;-74
2022/06/09 09:06:22;;;;;;;2.92;2.08;;;18.00;99.90;;;;;;5083080;28;20051;-73
2022/06/09 09:08:47;;;;;;;3.80;2.20;;;18.20;99.90;;;;;;5079550;28;20052;-73
2022/06/09 09:11:24;;;;;;;4.00;1.70;;;18.20;99.90;;;;;;5082481;28;20086;-75
2022/06/09 09:13:54;;;;;;;3.05;1.70;;;18.20;99.90;;;;;;5064748;28;20055;-73
2022/06/09 09:16:27;;;;;;;4.57;1.73;;;18.20;99.90;;;;;;5083163;28;20058;-74
2022/06/09 09:19:03;;;;;;;6.28;1.70;;;18.20;99.90;;;;;;5083049;28;20058;-73
2022/06/09 09:21:35;;;;;;;;;;;18.40;99.90;;;;;;5084129;28;20043;-74
2022/06/09 09:24:07;;;;;;;4.07;1.60;;;18.50;99.90;;;;;;5084336;28;19920;-74
2022/06/09 09:27:24;;;;;;;4.88;1.48;;;18.60;99.90;;;;;;5089214;28;20036;-72
2022/06/09 09:30:04;;;;;;;4.68;1.58;;;18.70;99.90;;;;;;5078512;28;20040;-74
2022/06/09 09:32:40;;;;;;;1.95;1.42;;;18.50;99.90;;;;;;5085731;28;20093;-74
2022/06/09 09:35:14;;;;;;;;;;;18.20;99.90;;;;;;5083289;28;20056;-74
2022/06/09 09:37:46;;;;;;;4.32;1.35;;;18.10;99.90;;;;;;5086167;28;19920;-71
2022/06/09 09:40:12;;;;;;;1.92;1.30;;;18.20;99.90;;;;;;5090726;28;20056;-73
2022/06/09 09:42:42;;;;;;;2.90;1.20;;;18.50;99.90;;;;;;5090862;28;20048;-71
2022/06/09 09:45:10;;;;;;;2.97;1.10;;;18.50;99.90;;;;;;5071363;28;20041;-73
2022/06/09 09:47:57;;;;;;;2.58;1.00;;;18.50;99.90;;;;;;5083385;28;20106;-73
2022/06/09 09:50:51;;;;;;;3.45;1.15;;;18.60;99.90;;;;;;5070819;28;20036;-70
2022/06/09 09:53:22;;;;;;;2.63;1.10;;;18.70;99.90;;;;;;5079091;28;20500;-71
2022/06/09 09:55:56;;;;;;;2.95;1.02;;;18.70;99.90;;;;;;5090179;28;20055;-72
2022/06/09 09:58:28;;;;;;;2.20;1.00;;;18.60;99.90;;;;;;5076723;28;20036;-71
2022/06/09 10:01:04;;;;;;;1.73;0.88;;;18.40;99.90;;;;;;5075910;28;20052;-73
2022/06/09 10:09:34;;;;;;;3.15;1.38;;;18.30;99.90;;;;;;5077789;28;20054;-70
2022/06/09 10:12:16;;;;;;;3.08;1.10;;;18.50;99.90;;;;;;5090425;28;20052;-71
2022/06/09 10:15:01;;;;;;;4.05;1.17;;;18.70;99.90;;;;;;5089935;28;20119;-70
2022/06/09 10:17:53;;;;;;;2.03;0.93;;;18.70;99.90;;;;;;5090202;28;20032;-72
2022/06/09 10:20:37;;;;;;;3.15;1.00;;;18.70;99.90;;;;;;5066388;28;20052;-70
2022/06/09 10:23:17;;;;;;;3.88;1.27;;;18.80;99.90;;;;;;5070476;28;20410;-72
2022/06/09 10:26:18;;;;;;;2.05;1.10;;;18.70;99.90;;;;;;5090230;28;20509;-71
2022/06/09 10:28:58;;;;;;;2.88;1.10;;;18.50;99.90;;;;;;5072087;28;20047;-72
2022/06/09 10:31:50;;;;;;;2.83;1.00;;;18.20;99.90;;;;;;5071976;28;20115;-71
2022/06/09 10:34:34;;;;;;;2.03;1.20;;;18.00;99.90;;;;;;5076723;28;20070;-72
2022/06/09 10:37:04;;;;;;;2.90;1.00;;;17.90;99.90;;;;;;5090000;28;20044;-72
2022/06/09 10:39:36;;;;;;;2.95;1.20;;;17.80;99.90;;;;;;5089838;28;20123;-73
2022/06/09 10:42:15;;;;;;;2.83;1.10;;;17.80;99.90;;;;;;5090032;28;20056;-73
2022/06/09 10:44:49;;;;;;;2.97;1.27;;;17.70;99.90;;;;;;5089817;28;20055;-74
2022/06/09 10:56:35;;;;;;;2.35;1.20;;;17.90;99.90;;;;;;5070085;28;20044;-73
2022/06/09 10:59:07;;;;;;;2.55;1.30;;;17.90;99.90;;;;;;5057613;28;20127;-73
2022/06/09 11:01:34;;;;;;;2.80;1.35;;;18.20;99.90;;;;;;5067990;28;20506;-73
2022/06/09 11:04:03;;;;;;;2.72;1.05;;;18.50;99.90;;;;;;5089835;28;20044;-75
2022/06/09 11:06:44;;;;;;;4.75;0.80;;;18.70;99.90;;;;;;5086242;28;20043;-72
2022/06/09 11:09:31;;;;;;;3.45;1.00;;;18.90;99.90;;;;;;5083450;28;20056;-71
2022/06/09 11:12:07;;;;;;;3.03;1.33;;;19.00;99.90;;;;;;5062059;28;20080;-72
2022/06/09 11:14:57;;;;;;;3.70;0.90;;;19.10;99.90;;;;;;5092354;28;20048;-73
2022/06/09 11:17:52;;;;;;;5.20;1.20;;;19.20;99.90;;;;;;5093559;28;20040;-73
2022/06/09 11:20:25;;;;;;;3.03;1.10;;;19.20;99.90;;;;;;5000562;28;20090;-72
2022/06/09 11:23:12;;;;;;;3.70;1.20;;;19.20;99.90;;;;;;5089743;28;20040;-71
2022/06/09 11:26:01;;;;;;;4.38;1.45;;;19.30;99.90;;;;;;5090708;28;20048;-72
2022/06/09 11:28:39;;;;;;;4.95;1.20;;;19.20;99.90;;;;;;5055047;28;20051;-71
2022/06/09 11:31:24;;;;;;;2.53;1.08;;;19.20;99.90;;;;;;5072674;28;20484;-71
2022/06/09 11:34:33;;;;;;;4.85;1.30;;;19.30;99.90;;;;;;5086937;28;20141;-72
2022/06/09 11:37:35;;;;;;;3.83;1.00;;;19.30;99.90;;;;;;5084924;28;20136;-72
2022/06/09 11:40:36;;;;;;;5.05;1.40;;;19.30;99.90;;;;;;5079889;28;20080;-72
2022/06/09 11:43:35;;;;;;;3.13;1.00;;;19.40;99.90;;;;;;5073064;28;20136;-71
2022/06/09 11:46:12;;;;;;;2.00;0.98;;;19.50;99.90;;;;;;5072605;28;20092;-71
2022/06/09 11:48:46;;;;;;;4.15;1.50;;;19.60;99.90;;;;;;5079969;28;20058;-71
2022/06/09 11:51:16;;;;;;;5.00;0.90;;;19.60;99.90;;;;;;5089788;28;20036;-71
2022/06/09 11:53:48;;;;;;;1.83;0.80;;;19.60;99.90;;;;;;5080195;28;20040;-72
2022/06/09 11:57:03;;;;;;;3.05;1.00;;;19.50;99.90;;;;;;5071434;28;20413;-71
2022/06/09 11:59:12;;;;;;;2.17;0.80;;;19.50;99.90;;;;;;5054103;28;20492;-72
2022/06/09 12:01:38;;;;;;;2.78;0.90;;;19.50;99.90;;;;;;5071142;28;20370;-72
2022/06/09 12:04:25;;;;;;;3.75;0.93;;;19.50;99.90;;;;;;5072303;28;20098;-71
2022/06/09 12:07:19;;;;;;;3.17;0.80;;;19.60;99.90;;;;;;5056755;28;20048;-72
2022/06/09 12:10:05;;;;;;;1.60;0.70;;;19.60;99.90;;;;;;5052477;28;20178;-73
2022/06/09 12:12:42;;;;;;;3.95;1.05;;;19.60;99.90;;;;;;5061093;28;20105;-72
2022/06/09 12:15:35;;;;;;;3.13;1.10;;;19.70;99.90;;;;;;5057833;28;20053;-71
2022/06/09 12:18:23;;;;;;;4.15;1.10;;;19.70;99.90;;;;;;5050391;28;20061;-72
2022/06/09 12:20:49;;;;;;;2.60;1.05;;;19.70;99.90;;;;;;5063349;28;20052;-74
2022/06/09 12:23:26;;;;;;;4.57;1.10;;;19.70;99.90;;;;;;5067043;28;20515;-79
2022/06/09 12:26:10;;;;;;;2.85;0.90;;;19.70;99.90;;;;;;5066268;28;20041;-73
2022/06/09 12:28:57;;;;;;;2.22;0.90;;;19.60;99.90;;;;;;5061320;28;20520;-73
2022/06/09 12:31:32;;;;;;;2.38;0.90;;;19.60;99.90;;;;;;5069922;28;20040;-73
2022/06/09 12:34:03;;;;;;;2.78;0.70;;;19.60;99.90;;;;;;5071627;28;20048;-71
2022/06/09 12:36:50;;;;;;;3.28;0.80;;;19.60;99.90;;;;;;5071703;28;20495;-76
2022/06/09 12:39:29;;;;;;;3.22;1.00;;;19.70;99.90;;;;;;5069968;28;20059;-73
2022/06/09 12:42:24;;;;;;;4.55;1.10;;;19.70;99.90;;;;;;5065267;28;20116;-72
2022/06/09 12:45:05;;;;;;;2.83;1.00;;;19.80;99.90;;;;;;5070846;28;20048;-74
2022/06/09 12:47:30;;;;;;;2.47;1.10;;;19.90;99.90;;;;;;5070998;28;20064;-73
2022/06/09 12:49:59;;;;;;;3.80;1.10;;;19.90;99.90;;;;;;5071537;28;20091;-72
2022/06/09 12:52:30;;;;;;;4.35;0.82;;;19.80;99.90;;;;;;5071541;28;20071;-73
2022/06/09 12:54:59;;;;;;;2.35;1.00;;;19.50;99.90;;;;;;5079938;28;20075;-70
2022/06/09 12:57:31;;;;;;;2.08;0.90;;;19.40;99.90;;;;;;5090748;28;20054;-70
2022/06/09 13:00:06;;;;;;;4.05;1.00;;;19.40;99.90;;;;;;5091667;28;20044;-70
2022/06/09 13:02:40;;;;;;;2.50;0.90;;;19.50;99.90;;;;;;5080206;28;20048;-70
2022/06/09 13:05:12;;;;;;;2.97;1.20;;;19.60;99.90;;;;;;5082178;28;20074;-71
2022/06/09 13:07:47;;;;;;;1.52;0.73;;;19.60;99.90;;;;;;5084089;28;20488;-71
2022/06/09 13:10:41;;;;;;;2.20;0.80;;;19.70;99.90;;;;;;5071149;28;20147;-70
2022/06/09 13:13:27;;;;;;;2.45;0.80;;;19.60;99.90;;;;;;5068484;28;20092;-73
2022/06/09 13:16:28;;;;;;;3.33;1.15;;;19.50;99.90;;;;;;5087226;28;20040;-72
2022/06/09 13:19:03;;;;;;;2.00;0.70;;;19.70;99.90;;;;;;5069409;28;20063;-72
2022/06/09 13:21:38;;;;;;;2.60;0.70;;;19.80;99.90;;;;;;5073111;28;20499;-72
2022/06/09 13:24:15;;;;;;;3.17;0.80;;;19.80;99.90;;;;;;5089380;28;20071;-73
2022/06/09 13:26:44;;;;;;;3.28;0.88;;;19.70;99.90;;;;;;5089832;28;20278;-73
2022/06/09 13:29:24;;;;;;;2.20;0.80;;;19.70;99.90;;;;;;5072728;28;20048;-73
2022/06/09 13:32:07;;;;;;;2.70;0.80;;;19.60;99.90;;;;;;5073432;28;20480;-71